Time;durP1;ratioP1;P1;durP2;ratioP2;P2;SDS_P1;SDS_P2;PMS_P1;PMS_P2;Temp;Humidity;BMP_temperature;BMP_pressure;BME280_temperature;BME280_humidity;BME280_pressure;Samples;Min_cycle;Max_cycle;Signal;HPM_P1;HPM_P2
2023/03/04 00:01:39;;;;;;;3.63;1.60;;;9.30;76.60;;;;;;5036461;28;20033;-83
2023/03/04 00:04:05;;;;;;;3.15;1.50;;;9.30;76.60;;;;;;5019782;28;20029;-83
2023/03/04 00:06:30;;;;;;;2.33;1.63;;;9.30;76.60;;;;;;5036506;28;20044;-83
2023/03/04 00:08:56;;;;;;;3.13;1.63;;;9.30;76.60;;;;;;5036377;28;20037;-82
2023/03/04 00:11:22;;;;;;;4.15;1.70;;;9.30;76.60;;;;;;5036213;28;20029;-82
2023/03/04 00:13:48;;;;;;;4.95;1.60;;;9.30;76.60;;;;;;5036218;28;20135;-83
2023/03/04 00:16:14;;;;;;;3.15;1.60;;;9.30;76.60;;;;;;5052417;28;20079;-82
2023/03/04 00:18:40;;;;;;;3.75;1.83;;;9.30;76.60;;;;;;5052560;28;20477;-83
2023/03/04 00:21:06;;;;;;;3.45;1.60;;;9.20;76.60;;;;;;5035941;28;20025;-82
2023/03/04 00:23:31;;;;;;;4.05;1.85;;;9.30;76.60;;;;;;5035739;28;20029;-82
2023/03/04 00:25:57;;;;;;;4.53;1.70;;;9.20;76.60;;;;;;5035969;28;20483;-82
2023/03/04 00:28:23;;;;;;;3.85;1.42;;;9.30;76.70;;;;;;5036214;28;20033;-83
2023/03/04 00:30:49;;;;;;;4.85;2.33;;;9.20;76.60;;;;;;5036202;28;20112;-83
2023/03/04 00:33:15;;;;;;;2.63;1.73;;;9.20;76.60;;;;;;5018927;28;20053;-82
2023/03/04 00:35:40;;;;;;;2.60;1.55;;;9.20;76.60;;;;;;5019257;28;20041;-82
2023/03/04 00:38:06;;;;;;;4.40;1.75;;;9.20;76.60;;;;;;5035840;28;20038;-82
2023/03/04 00:40:32;;;;;;;5.63;2.08;;;9.20;76.60;;;;;;5039514;28;20029;-83
2023/03/04 00:42:58;;;;;;;2.47;1.60;;;9.20;76.50;;;;;;5056068;28;20035;-80
2023/03/04 00:45:23;;;;;;;2.13;1.63;;;9.20;76.50;;;;;;5055680;28;20055;-82
2023/03/04 00:47:50;;;;;;;3.35;1.50;;;9.20;76.50;;;;;;5039469;28;20029;-82
2023/03/04 00:50:16;;;;;;;2.78;1.55;;;9.20;76.50;;;;;;5022437;28;20040;-82
2023/03/04 00:52:42;;;;;;;3.22;1.50;;;9.20;76.50;;;;;;5023135;28;20037;-82
2023/03/04 00:55:08;;;;;;;4.72;1.70;;;9.20;76.50;;;;;;5022590;28;20032;-82
2023/03/04 00:57:34;;;;;;;4.90;1.85;;;9.20;76.50;;;;;;5056883;28;20065;-83
2023/03/04 01:00:00;;;;;;;3.58;1.58;;;9.10;76.40;;;;;;5022970;28;20029;-82
2023/03/04 01:02:26;;;;;;;3.70;1.67;;;9.20;76.50;;;;;;5039025;28;20040;-83
2023/03/04 01:04:52;;;;;;;4.95;1.75;;;9.20;76.50;;;;;;5021988;28;20033;-85
2023/03/04 01:07:17;;;;;;;4.65;1.70;;;9.10;76.50;;;;;;5038994;28;20044;-81
2023/03/04 01:09:43;;;;;;;3.88;1.70;;;9.10;76.50;;;;;;5038460;28;20025;-82
2023/03/04 01:12:09;;;;;;;2.45;1.50;;;9.10;76.50;;;;;;5022335;28;20115;-82
2023/03/04 01:14:36;;;;;;;2.42;1.55;;;9.10;76.50;;;;;;5038760;28;20022;-82
2023/03/04 01:17:02;;;;;;;3.78;1.65;;;9.10;76.40;;;;;;5038738;28;20124;-84
2023/03/04 01:19:28;;;;;;;2.38;1.60;;;9.10;76.40;;;;;;5038788;28;20032;-85
2023/03/04 01:21:53;;;;;;;3.35;1.80;;;9.10;76.40;;;;;;5055289;28;20500;-82
2023/03/04 01:24:20;;;;;;;3.47;1.80;;;9.10;76.40;;;;;;5038945;28;20116;-82
2023/03/04 01:26:46;;;;;;;3.38;1.65;;;9.10;76.40;;;;;;5056374;28;20056;-82
2023/03/04 01:29:13;;;;;;;4.03;1.70;;;9.10;76.30;;;;;;5038878;28;20079;-82
2023/03/04 01:31:39;;;;;;;2.80;1.98;;;9.10;76.30;;;;;;5052130;28;20053;-82
2023/03/04 01:34:05;;;;;;;3.45;1.38;;;9.10;76.30;;;;;;5034967;28;20484;-82
2023/03/04 01:36:31;;;;;;;3.03;1.50;;;9.10;76.30;;;;;;5034999;28;20037;-82
2023/03/04 01:38:56;;;;;;;4.25;1.83;;;9.10;76.30;;;;;;5051631;28;20112;-82
2023/03/04 01:41:25;;;;;;;3.38;1.52;;;9.10;76.30;;;;;;5052172;28;20434;-82
2023/03/04 01:43:56;;;;;;;3.58;1.67;;;9.10;76.40;;;;;;5034908;28;20087;-82
2023/03/04 01:46:23;;;;;;;3.38;1.50;;;9.10;76.40;;;;;;5018442;28;20029;-83
2023/03/04 01:48:49;;;;;;;2.78;1.48;;;9.10;76.40;;;;;;5051472;28;20085;-82
2023/03/04 01:51:16;;;;;;;3.40;1.40;;;9.10;76.40;;;;;;5035716;28;20029;-82
2023/03/04 01:53:44;;;;;;;2.33;1.60;;;9.10;76.40;;;;;;5034990;28;20021;-82
2023/03/04 01:56:29;;;;;;;2.42;1.45;;;9.10;76.40;;;;;;5034370;28;20116;-82
2023/03/04 01:59:19;;;;;;;2.75;1.38;;;9.10;76.40;;;;;;5035134;28;20034;-82
2023/03/04 02:01:54;;;;;;;2.42;1.55;;;9.10;76.40;;;;;;5034710;28;20057;-82
2023/03/04 02:04:23;;;;;;;2.60;1.52;;;9.10;76.40;;;;;;5035331;28;20103;-82
2023/03/04 02:06:50;;;;;;;2.67;1.75;;;9.00;76.40;;;;;;5017873;28;20028;-82
2023/03/04 02:09:16;;;;;;;2.50;1.50;;;9.00;76.40;;;;;;5017771;28;20132;-81
2023/03/04 02:11:45;;;;;;;2.65;1.52;;;9.00;76.40;;;;;;5034248;28;20108;-82
2023/03/04 02:14:12;;;;;;;2.55;1.40;;;9.10;76.40;;;;;;5018195;28;20029;-82
2023/03/04 02:16:38;;;;;;;2.78;1.40;;;9.00;76.40;;;;;;5034263;28;20056;-82
2023/03/04 02:19:14;;;;;;;2.70;1.52;;;9.00;76.40;;;;;;5033920;28;20037;-85
2023/03/04 02:21:40;;;;;;;3.33;1.70;;;9.00;76.40;;;;;;5018390;28;20030;-83
2023/03/04 02:24:24;;;;;;;4.65;1.70;;;9.00;76.50;;;;;;5050659;28;20031;-81
2023/03/04 02:26:50;;;;;;;1.98;1.30;;;9.00;76.40;;;;;;5034319;28;20496;-82
2023/03/04 02:29:17;;;;;;;3.63;1.55;;;9.00;76.40;;;;;;5034575;28;20107;-82
2023/03/04 02:31:48;;;;;;;4.72;1.67;;;9.00;76.40;;;;;;5034033;28;20054;-83
2023/03/04 02:34:18;;;;;;;3.45;1.38;;;9.00;76.40;;;;;;5017828;28;20040;-82
2023/03/04 02:36:45;;;;;;;3.40;1.70;;;9.00;76.40;;;;;;5050617;28;20044;-82
2023/03/04 02:39:18;;;;;;;3.58;1.40;;;9.00;76.40;;;;;;5034073;28;20030;-83
2023/03/04 02:41:44;;;;;;;3.10;1.55;;;9.00;76.40;;;;;;5033930;28;20534;-82
2023/03/04 02:44:35;;;;;;;3.15;1.48;;;9.00;76.30;;;;;;5034323;28;20446;-83
2023/03/04 02:47:01;;;;;;;2.08;1.33;;;9.00;76.30;;;;;;5017563;28;20030;-82
2023/03/04 02:49:29;;;;;;;2.67;1.40;;;9.00;76.30;;;;;;5034268;28;20034;-83
2023/03/04 02:52:07;;;;;;;2.33;1.40;;;9.00;76.30;;;;;;5017987;28;20030;-82
2023/03/04 02:54:33;;;;;;;2.97;1.45;;;9.00;76.30;;;;;;5034726;28;20042;-83
2023/03/04 02:57:06;;;;;;;4.13;1.60;;;9.00;76.30;;;;;;5033542;28;20025;-83
2023/03/04 02:59:38;;;;;;;3.03;1.60;;;9.00;76.30;;;;;;5017273;28;20033;-82
2023/03/04 03:02:05;;;;;;;3.63;1.50;;;9.00;76.30;;;;;;5033364;28;20049;-82
2023/03/04 03:04:33;;;;;;;3.15;1.30;;;9.00;76.30;;;;;;5033467;28;20052;-82
2023/03/04 03:06:59;;;;;;;3.40;1.58;;;9.00;76.30;;;;;;5033588;28;20462;-84
2023/03/04 03:09:25;;;;;;;3.60;1.40;;;9.00;76.30;;;;;;5049774;28;20037;-81
2023/03/04 03:11:51;;;;;;;1.90;1.30;;;9.00;76.30;;;;;;5033864;28;20124;-82
2023/03/04 03:14:17;;;;;;;3.47;1.70;;;8.90;76.20;;;;;;5033873;28;20110;-82
2023/03/04 03:16:42;;;;;;;3.25;1.45;;;9.00;76.20;;;;;;5033069;28;20030;-84
2023/03/04 03:19:09;;;;;;;2.00;1.45;;;9.00;76.20;;;;;;5033317;28;20090;-82
2023/03/04 03:21:35;;;;;;;3.65;1.67;;;9.00;76.20;;;;;;5033131;28;20064;-82
2023/03/04 03:24:01;;;;;;;2.45;1.38;;;8.90;76.20;;;;;;5033394;28;20026;-82
2023/03/04 03:26:28;;;;;;;3.13;1.23;;;8.90;76.20;;;;;;5034098;28;20073;-84
2023/03/04 03:28:53;;;;;;;4.05;1.58;;;8.90;76.20;;;;;;5050569;28;20119;-82
2023/03/04 03:31:20;;;;;;;2.72;1.30;;;8.90;76.20;;;;;;5041100;28;20037;-82
2023/03/04 03:33:46;;;;;;;3.67;1.30;;;8.90;76.20;;;;;;5043794;28;20033;-85
2023/03/04 03:36:12;;;;;;;2.58;1.30;;;8.90;76.20;;;;;;5057780;28;20457;-82
2023/03/04 03:38:38;;;;;;;3.67;1.45;;;8.90;76.20;;;;;;5020655;28;20028;-81
2023/03/04 03:41:04;;;;;;;3.70;1.60;;;8.90;76.80;;;;;;5019535;28;20037;-82
2023/03/04 03:43:29;;;;;;;3.47;1.52;;;8.90;76.20;;;;;;5053451;28;20044;-82
2023/03/04 03:45:55;;;;;;;3.60;1.42;;;8.90;76.30;;;;;;5035925;28;20033;-82
2023/03/04 03:48:21;;;;;;;3.28;1.30;;;8.90;76.30;;;;;;5036707;28;20025;-82
2023/03/04 03:50:47;;;;;;;4.60;1.60;;;8.90;76.20;;;;;;5020226;28;20049;-82
2023/03/04 03:53:13;;;;;;;2.85;1.38;;;8.90;76.20;;;;;;5036855;28;20040;-81
2023/03/04 03:55:38;;;;;;;3.58;1.40;;;8.90;76.20;;;;;;5036304;28;20473;-85
2023/03/04 03:58:04;;;;;;;3.08;1.38;;;8.90;76.20;;;;;;5036203;28;20036;-81
2023/03/04 04:00:30;;;;;;;3.20;1.50;;;8.90;76.20;;;;;;5019786;28;20087;-82
2023/03/04 04:02:58;;;;;;;3.90;1.60;;;8.90;76.20;;;;;;5019794;28;20025;-82
2023/03/04 04:05:25;;;;;;;2.30;1.30;;;8.90;76.20;;;;;;5052911;28;20051;-82
2023/03/04 04:07:50;;;;;;;3.13;1.70;;;8.90;76.20;;;;;;5019596;28;20033;-82
2023/03/04 04:10:16;;;;;;;1.45;1.27;;;8.90;76.20;;;;;;5019351;28;20041;-82
2023/03/04 04:12:42;;;;;;;3.40;1.70;;;8.90;76.20;;;;;;5019511;28;20053;-82
2023/03/04 04:15:10;;;;;;;3.17;1.77;;;8.80;76.20;;;;;;5022567;28;20033;-82
2023/03/04 04:17:36;;;;;;;1.63;1.33;;;8.80;76.20;;;;;;5039405;28;20024;-82
2023/03/04 04:20:02;;;;;;;2.78;1.50;;;8.80;76.20;;;;;;5040043;28;20533;-82
2023/03/04 04:22:28;;;;;;;2.25;1.10;;;8.80;76.20;;;;;;5039971;28;20025;-84
2023/03/04 04:24:53;;;;;;;2.42;1.40;;;8.80;76.20;;;;;;5039701;28;20083;-83
2023/03/04 04:27:19;;;;;;;2.13;1.40;;;8.80;76.20;;;;;;5039423;28;20025;-78
2023/03/04 04:29:45;;;;;;;4.38;1.38;;;8.80;76.20;;;;;;5039616;28;20123;-82
2023/03/04 04:32:12;;;;;;;2.67;1.30;;;8.80;76.20;;;;;;5039097;28;20099;-82
2023/03/04 04:34:37;;;;;;;1.95;1.20;;;8.80;76.20;;;;;;5040075;28;20116;-81
2023/03/04 04:37:03;;;;;;;1.33;1.20;;;8.80;76.30;;;;;;5040171;28;20053;-81
2023/03/04 04:39:29;;;;;;;2.65;1.50;;;8.80;76.20;;;;;;5039506;28;20064;-83
2023/03/04 04:41:55;;;;;;;2.38;1.50;;;8.80;76.20;;;;;;5023593;28;20059;-82
2023/03/04 04:44:21;;;;;;;2.67;1.30;;;8.80;76.20;;;;;;5040217;28;20036;-82
2023/03/04 04:46:46;;;;;;;2.45;1.30;;;8.80;76.20;;;;;;5056196;28;20112;-82
2023/03/04 04:49:12;;;;;;;2.05;1.20;;;8.80;76.20;;;;;;5022789;28;20049;-82
2023/03/04 04:51:38;;;;;;;2.03;1.40;;;8.80;76.20;;;;;;5056984;28;20105;-82
2023/03/04 04:54:05;;;;;;;2.30;1.50;;;8.80;76.20;;;;;;5055981;28;20162;-82
2023/03/04 04:56:31;;;;;;;2.40;1.35;;;8.80;76.20;;;;;;5056623;28;20049;-82
2023/03/04 04:58:59;;;;;;;1.75;1.30;;;8.80;76.30;;;;;;5055803;28;20481;-83
2023/03/04 05:01:25;;;;;;;2.42;1.60;;;8.80;76.30;;;;;;5022281;28;20063;-83
2023/03/04 05:03:54;;;;;;;3.28;1.58;;;8.80;76.30;;;;;;5022300;28;20036;-83
2023/03/04 05:06:22;;;;;;;2.20;1.23;;;8.80;76.30;;;;;;5038914;28;20132;-82
2023/03/04 05:08:48;;;;;;;2.50;1.20;;;8.80;76.30;;;;;;5039128;28;20548;-83
2023/03/04 05:11:15;;;;;;;2.05;1.40;;;8.80;76.30;;;;;;5056434;28;20386;-82
2023/03/04 05:13:41;;;;;;;2.30;1.20;;;8.80;76.30;;;;;;5055872;28;20545;-82
2023/03/04 05:16:08;;;;;;;1.48;1.13;;;8.80;76.30;;;;;;5022917;28;20029;-82
2023/03/04 05:18:33;;;;;;;1.30;1.20;;;8.80;76.30;;;;;;5038460;28;20044;-82
2023/03/04 05:21:02;;;;;;;2.85;1.30;;;8.80;76.30;;;;;;5055391;28;20033;-84
2023/03/04 05:23:31;;;;;;;1.88;1.38;;;8.80;76.40;;;;;;5022046;28;20032;-83
2023/03/04 05:25:57;;;;;;;1.77;1.15;;;8.80;76.30;;;;;;5020571;28;20021;-82
2023/03/04 05:28:23;;;;;;;1.42;1.17;;;8.80;76.30;;;;;;5038452;28;20032;-81
2023/03/04 05:30:49;;;;;;;1.80;1.38;;;8.80;76.30;;;;;;5038331;28;20043;-81
2023/03/04 05:33:16;;;;;;;2.40;1.13;;;8.80;76.40;;;;;;5038256;28;20059;-82
2023/03/04 05:35:43;;;;;;;1.42;1.25;;;8.80;76.30;;;;;;5038175;28;20029;-82
2023/03/04 05:38:11;;;;;;;2.83;1.30;;;8.80;76.30;;;;;;5022115;28;20525;-82
2023/03/04 05:40:37;;;;;;;1.92;1.33;;;8.80;76.30;;;;;;5038606;28;20068;-80
2023/03/04 05:43:04;;;;;;;3.05;1.70;;;8.80;76.30;;;;;;5038381;28;20033;-82
2023/03/04 05:45:30;;;;;;;2.63;1.20;;;8.80;76.40;;;;;;5038352;28;20041;-83
2023/03/04 05:47:55;;;;;;;2.10;1.30;;;8.70;76.40;;;;;;5038194;28;20025;-82
2023/03/04 05:50:22;;;;;;;4.25;1.73;;;8.70;76.40;;;;;;5021686;28;20044;-81
2023/03/04 05:52:51;;;;;;;2.28;1.30;;;8.70;76.30;;;;;;5038513;28;20044;-82
2023/03/04 05:55:17;;;;;;;2.55;1.30;;;8.80;76.40;;;;;;5038618;28;20492;-82
2023/03/04 05:57:43;;;;;;;1.30;1.20;;;8.70;76.40;;;;;;5038023;28;20045;-82
2023/03/04 06:00:11;;;;;;;1.60;1.25;;;8.70;76.30;;;;;;5054598;28;20040;-82
2023/03/04 06:02:41;;;;;;;1.52;1.38;;;8.80;76.40;;;;;;5038370;28;20133;-83
2023/03/04 06:05:08;;;;;;;1.42;1.20;;;8.70;76.40;;;;;;5038841;28;20032;-81
2023/03/04 06:07:34;;;;;;;1.60;1.30;;;8.70;76.40;;;;;;5060667;28;20032;-82
2023/03/04 06:10:00;;;;;;;1.58;1.17;;;8.70;76.40;;;;;;5060834;28;20083;-83
2023/03/04 06:12:27;;;;;;;1.60;1.10;;;8.70;76.40;;;;;;5023006;28;20033;-83
2023/03/04 06:14:53;;;;;;;2.80;1.38;;;8.70;76.40;;;;;;5038631;28;20033;-83
2023/03/04 06:17:19;;;;;;;1.45;1.20;;;8.70;76.40;;;;;;5055090;28;20021;-82
2023/03/04 06:19:45;;;;;;;2.65;1.40;;;8.70;76.40;;;;;;5037617;28;20029;-81
2023/03/04 06:22:11;;;;;;;1.33;1.20;;;8.70;76.40;;;;;;5037643;28;20037;-81
2023/03/04 06:24:37;;;;;;;2.08;1.42;;;8.70;76.40;;;;;;5021029;28;20033;-81
2023/03/04 06:27:03;;;;;;;1.48;1.10;;;8.70;76.40;;;;;;5038059;28;20029;-81
2023/03/04 06:29:29;;;;;;;2.58;1.40;;;8.70;76.40;;;;;;5037325;28;20446;-80
2023/03/04 06:31:55;;;;;;;1.52;1.20;;;8.70;76.40;;;;;;5036910;28;20051;-80
2023/03/04 06:34:21;;;;;;;1.20;1.00;;;8.70;76.50;;;;;;5020524;28;20033;-82
2023/03/04 06:36:46;;;;;;;1.67;1.20;;;8.70;76.50;;;;;;5054317;28;20029;-82
2023/03/04 06:39:12;;;;;;;1.85;1.10;;;8.70;76.50;;;;;;5020639;28;20496;-81
2023/03/04 06:41:39;;;;;;;1.70;1.20;;;8.70;76.50;;;;;;5021640;28;20025;-83
2023/03/04 06:44:04;;;;;;;2.22;1.10;;;8.70;76.50;;;;;;5037605;28;20044;-81
2023/03/04 06:46:33;;;;;;;1.75;1.17;;;8.70;76.50;;;;;;5037079;28;20025;-82
2023/03/04 06:48:58;;;;;;;2.40;1.52;;;8.70;76.50;;;;;;5036892;28;20037;-82
2023/03/04 06:51:25;;;;;;;1.30;1.00;;;8.70;76.50;;;;;;5037818;28;20025;-81
2023/03/04 06:53:51;;;;;;;1.13;1.10;;;8.70;76.50;;;;;;5020792;28;20068;-82
2023/03/04 06:56:17;;;;;;;2.25;1.20;;;8.70;76.60;;;;;;5053565;28;20118;-80
2023/03/04 06:58:44;;;;;;;1.58;1.10;;;8.70;76.50;;;;;;5037153;28;20040;-82
2023/03/04 07:01:26;;;;;;;2.42;1.45;;;8.60;76.50;;;;;;5054589;28;20037;-83
2023/03/04 07:03:52;;;;;;;1.20;1.10;;;8.70;76.60;;;;;;5036927;28;20108;-82
2023/03/04 07:06:20;;;;;;;2.78;1.33;;;8.70;76.60;;;;;;5036923;28;20017;-82
2023/03/04 07:08:46;;;;;;;2.30;1.17;;;8.70;76.60;;;;;;5036654;28;20132;-81
2023/03/04 07:11:13;;;;;;;1.60;1.13;;;8.60;76.60;;;;;;5036697;28;20064;-82
2023/03/04 07:13:38;;;;;;;1.45;1.30;;;8.60;76.60;;;;;;5036762;28;20044;-83
2023/03/04 07:16:10;;;;;;;1.30;1.20;;;8.70;76.70;;;;;;5037375;28;20021;-82
2023/03/04 07:18:37;;;;;;;1.30;1.20;;;8.70;76.70;;;;;;5037009;28;20025;-81
2023/03/04 07:21:03;;;;;;;1.52;1.10;;;8.60;76.60;;;;;;5037454;28;20369;-83
2023/03/04 07:23:29;;;;;;;1.23;1.10;;;8.60;76.60;;;;;;5036558;28;20089;-83
2023/03/04 07:25:55;;;;;;;1.30;1.10;;;8.60;76.70;;;;;;5037217;28;20068;-81
2023/03/04 07:28:21;;;;;;;1.20;1.08;;;8.60;76.70;;;;;;5036820;28;20044;-82
2023/03/04 07:30:47;;;;;;;2.80;1.73;;;8.60;76.70;;;;;;5036909;28;20055;-81
2023/03/04 07:33:13;;;;;;;1.17;1.10;;;8.60;76.70;;;;;;5052806;28;20055;-80
2023/03/04 07:35:40;;;;;;;1.33;1.10;;;8.60;76.70;;;;;;5020037;28;20042;-82
2023/03/04 07:38:06;;;;;;;2.08;1.20;;;8.60;76.70;;;;;;5036158;28;20036;-80
2023/03/04 07:40:32;;;;;;;1.00;1.00;;;8.60;76.70;;;;;;5036393;28;20037;-81
2023/03/04 07:42:57;;;;;;;1.42;1.08;;;8.60;76.80;;;;;;5036011;28;20033;-80
2023/03/04 07:45:25;;;;;;;1.60;1.33;;;8.60;76.80;;;;;;5036636;28;20025;-81
2023/03/04 07:47:53;;;;;;;1.52;1.20;;;8.60;76.80;;;;;;5052670;28;20085;-80
2023/03/04 07:50:19;;;;;;;1.23;1.13;;;8.60;76.90;;;;;;5039266;28;20067;-81
2023/03/04 07:52:46;;;;;;;1.60;1.25;;;8.60;76.90;;;;;;5057783;28;20102;-81
2023/03/04 07:55:14;;;;;;;2.20;1.27;;;8.60;76.90;;;;;;5039871;28;20029;-81
2023/03/04 07:57:45;;;;;;;1.17;1.10;;;8.60;76.90;;;;;;5039480;28;20025;-80
2023/03/04 08:00:14;;;;;;;1.75;1.20;;;8.60;76.90;;;;;;5023844;28;20041;-81
2023/03/04 08:02:40;;;;;;;1.42;1.27;;;8.60;76.90;;;;;;5058362;28;20049;-81
2023/03/04 08:05:07;;;;;;;1.70;1.48;;;8.70;77.00;;;;;;5040387;28;20060;-80
2023/03/04 08:07:32;;;;;;;1.42;1.13;;;8.60;76.90;;;;;;5056720;28;20025;-81
2023/03/04 08:09:58;;;;;;;1.10;1.00;;;8.60;76.80;;;;;;5023078;28;20102;-82
2023/03/04 08:12:25;;;;;;;2.28;1.27;;;8.60;76.90;;;;;;5039767;28;20052;-79
2023/03/04 08:14:51;;;;;;;2.78;1.50;;;8.60;76.90;;;;;;5039275;28;20028;-80
2023/03/04 08:17:17;;;;;;;1.83;1.30;;;8.60;76.90;;;;;;5039691;28;20365;-80
2023/03/04 08:19:43;;;;;;;2.42;1.30;;;8.70;76.90;;;;;;5022723;28;20032;-81
2023/03/04 08:22:09;;;;;;;1.80;1.20;;;8.70;76.90;;;;;;5039734;28;20576;-80
2023/03/04 08:24:35;;;;;;;1.58;1.20;;;8.70;76.90;;;;;;5039696;28;20028;-81
2023/03/04 08:27:01;;;;;;;1.27;1.13;;;8.60;76.80;;;;;;5055805;28;20067;-81
2023/03/04 08:29:27;;;;;;;1.10;1.10;;;8.70;77.00;;;;;;5039973;28;20072;-81
2023/03/04 08:31:54;;;;;;;1.58;1.35;;;8.70;76.90;;;;;;5039141;28;20045;-82
2023/03/04 08:34:24;;;;;;;1.60;1.13;;;8.70;77.00;;;;;;5057428;28;20363;-82
2023/03/04 08:36:50;;;;;;;1.63;1.30;;;8.70;77.00;;;;;;5023295;28;20037;-81
2023/03/04 08:39:17;;;;;;;1.33;1.23;;;8.70;77.00;;;;;;5039956;28;20025;-82
2023/03/04 08:41:43;;;;;;;1.85;1.10;;;8.70;77.00;;;;;;5045539;28;20032;-80
2023/03/04 08:44:09;;;;;;;1.30;1.20;;;8.70;77.10;;;;;;5045525;28;20482;-80
2023/03/04 08:46:40;;;;;;;1.98;1.50;;;8.70;77.70;;;;;;5026036;28;20120;-81
2023/03/04 08:49:06;;;;;;;1.45;1.20;;;8.80;77.20;;;;;;5058218;28;20059;-81
2023/03/04 08:51:34;;;;;;;2.30;1.48;;;8.80;77.10;;;;;;5039710;28;20434;-81
2023/03/04 08:54:01;;;;;;;1.33;1.20;;;8.80;77.10;;;;;;5056018;28;20021;-81
2023/03/04 08:56:27;;;;;;;2.17;1.40;;;8.80;77.00;;;;;;5039028;28;20459;-83
2023/03/04 08:58:53;;;;;;;1.35;1.20;;;8.80;77.00;;;;;;5055814;28;20040;-82
2023/03/04 09:01:19;;;;;;;1.35;1.23;;;8.80;77.00;;;;;;5039405;28;20112;-81
2023/03/04 09:03:44;;;;;;;1.33;1.10;;;8.90;77.00;;;;;;5055434;28;20515;-82
2023/03/04 09:06:14;;;;;;;2.00;1.30;;;8.90;77.10;;;;;;5056756;28;20461;-82
2023/03/04 09:08:40;;;;;;;1.65;1.27;;;8.90;77.00;;;;;;5055739;28;20465;-82
2023/03/04 09:11:05;;;;;;;1.20;1.10;;;8.90;77.10;;;;;;5038725;28;20040;-82
2023/03/04 09:13:32;;;;;;;1.73;1.25;;;8.90;77.10;;;;;;5022387;28;20553;-82
2023/03/04 09:15:58;;;;;;;1.98;1.48;;;8.90;77.00;;;;;;5055443;28;20101;-82
2023/03/04 09:18:24;;;;;;;2.70;1.30;;;9.00;77.10;;;;;;5055019;28;20477;-81
2023/03/04 09:20:51;;;;;;;1.73;1.30;;;9.00;77.10;;;;;;5022255;28;20469;-82
2023/03/04 09:23:17;;;;;;;1.40;1.30;;;9.00;77.10;;;;;;5038638;28;20087;-80
2023/03/04 10:30:46;;;;;;;2.00;1.30;;;9.30;77.50;;;;;;4933001;28;20059;-84
2023/03/04 10:33:19;;;;;;;2.22;1.25;;;9.30;77.40;;;;;;4917954;29;20048;-83
2023/03/04 10:36:15;;;;;;;1.40;1.30;;;9.40;77.50;;;;;;4902724;29;20131;-82
2023/03/04 10:38:42;;;;;;;1.20;1.10;;;9.40;77.50;;;;;;4884678;29;20072;-82
2023/03/04 10:41:23;;;;;;;1.33;1.23;;;9.50;77.40;;;;;;4901913;29;20024;-82
2023/03/04 10:44:10;;;;;;;1.40;1.30;;;9.50;77.40;;;;;;4902408;29;20032;-84
2023/03/04 10:46:45;;;;;;;1.83;1.60;;;9.50;77.40;;;;;;4895240;29;20484;-84
2023/03/04 10:49:11;;;;;;;;;;;9.60;77.30;;;;;;4933592;29;20040;-83
2023/03/04 10:51:45;;;;;;;1.42;1.25;;;9.60;77.20;;;;;;4918678;29;19911;-82
2023/03/04 10:54:34;;;;;;;1.30;1.20;;;9.70;77.10;;;;;;4901823;29;20103;-83
2023/03/04 10:57:00;;;;;;;1.52;1.40;;;9.70;77.20;;;;;;4918471;29;20036;-83
2023/03/04 10:59:30;;;;;;;1.35;1.25;;;9.70;77.10;;;;;;4933324;29;20079;-81
2023/03/04 11:01:59;;;;;;;1.00;1.00;;;9.80;77.30;;;;;;4933243;29;20170;-82
2023/03/04 11:04:31;;;;;;;1.27;1.17;;;9.80;77.30;;;;;;4901640;29;20049;-84
2023/03/04 11:06:57;;;;;;;1.60;1.40;;;9.90;77.40;;;;;;4918679;29;20482;-83
2023/03/04 11:09:30;;;;;;;2.13;1.42;;;9.90;77.30;;;;;;4901993;29;20036;-87
2023/03/04 11:11:59;;;;;;;1.67;1.30;;;10.00;77.40;;;;;;4901747;29;20484;-83
2023/03/04 11:14:29;;;;;;;2.65;1.35;;;10.00;77.40;;;;;;4902069;29;20460;-84
2023/03/04 11:17:15;;;;;;;1.88;1.40;;;10.00;77.40;;;;;;4933774;29;20087;-84
2023/03/04 11:19:45;;;;;;;1.25;1.15;;;10.00;77.40;;;;;;4901298;29;20043;-84
2023/03/04 11:22:17;;;;;;;1.42;1.20;;;10.10;77.40;;;;;;4901430;29;20031;-83
2023/03/04 11:24:43;;;;;;;1.10;1.10;;;10.10;77.40;;;;;;4917229;29;20032;-85
2023/03/04 11:27:18;;;;;;;2.00;1.30;;;10.10;77.30;;;;;;4933187;29;20039;-83
2023/03/04 11:29:56;;;;;;;1.40;1.30;;;10.20;77.40;;;;;;4916858;29;20051;-82
2023/03/04 11:32:30;;;;;;;2.00;1.30;;;10.20;77.30;;;;;;4901719;29;20116;-82
2023/03/04 11:35:01;;;;;;;1.55;1.38;;;10.20;77.30;;;;;;4901671;29;20032;-83
2023/03/04 11:37:34;;;;;;;1.25;1.15;;;10.30;77.30;;;;;;4933258;29;20040;-83
2023/03/04 11:40:11;;;;;;;1.40;1.30;;;10.30;77.30;;;;;;4933221;29;20040;-82
2023/03/04 11:42:40;;;;;;;1.30;1.20;;;10.30;77.30;;;;;;4933433;29;20119;-82
2023/03/04 11:45:15;;;;;;;1.25;1.17;;;10.40;77.30;;;;;;4933257;29;20114;-82
2023/03/04 11:47:52;;;;;;;;;;;10.40;77.30;;;;;;4917250;29;20024;-83
2023/03/04 11:50:30;;;;;;;1.10;1.10;;;10.40;77.20;;;;;;4900931;29;19921;-85
2023/03/04 11:53:15;;;;;;;1.23;1.08;;;10.40;77.10;;;;;;4901281;29;20044;-86
2023/03/04 11:56:10;;;;;;;1.27;1.17;;;10.50;77.20;;;;;;4917965;29;20032;-86
2023/03/04 11:59:30;;;;;;;1.27;1.17;;;10.50;77.20;;;;;;4918528;29;20469;-85
2023/03/04 12:02:18;;;;;;;1.02;1.02;;;10.50;77.20;;;;;;4866136;29;20030;-88
2023/03/04 12:05:05;;;;;;;1.33;1.20;;;10.50;77.10;;;;;;4887960;29;20044;-83
2023/03/04 12:07:53;;;;;;;1.05;1.05;;;10.60;77.20;;;;;;4917228;29;20072;-87
2023/03/04 12:10:27;;;;;;;1.20;1.10;;;10.60;77.20;;;;;;4900849;29;20070;-84
2023/03/04 12:13:19;;;;;;;1.00;1.00;;;10.60;77.10;;;;;;4917907;29;20068;-82
2023/03/04 12:16:18;;;;;;;1.20;1.10;;;10.70;77.20;;;;;;4917873;29;20032;-83
2023/03/04 12:18:56;;;;;;;1.08;1.00;;;10.70;77.10;;;;;;4918236;29;20445;-82
2023/03/04 12:21:28;;;;;;;1.20;1.10;;;10.80;77.10;;;;;;4917656;29;20039;-82
2023/03/04 12:23:56;;;;;;;1.30;1.20;;;10.80;77.10;;;;;;4916463;29;20028;-84
2023/03/04 12:26:38;;;;;;;1.20;1.20;;;10.80;77.10;;;;;;4932395;29;20035;-82
2023/03/04 12:29:34;;;;;;;1.33;1.13;;;10.80;77.10;;;;;;4917477;29;20095;-82
2023/03/04 12:32:05;;;;;;;1.23;1.10;;;10.80;77.10;;;;;;4877484;29;20059;-82
2023/03/04 12:34:56;;;;;;;1.27;1.13;;;10.90;77.10;;;;;;4932669;29;20491;-84
2023/03/04 12:37:22;;;;;;;1.20;1.10;;;10.90;77.20;;;;;;4936090;29;20119;-84
2023/03/04 12:40:05;;;;;;;1.48;1.10;;;10.90;77.10;;;;;;4935753;29;20043;-83
2023/03/04 12:42:49;;;;;;;1.52;1.15;;;10.90;77.10;;;;;;4903832;29;20032;-83
2023/03/04 12:45:36;;;;;;;1.20;1.10;;;10.90;77.00;;;;;;4936424;29;20036;-86
2023/03/04 12:48:11;;;;;;;1.17;1.10;;;11.00;77.10;;;;;;4904046;29;20028;-82
2023/03/04 12:51:14;;;;;;;1.25;1.15;;;11.00;77.10;;;;;;4935413;29;20096;-81
2023/03/04 12:53:55;;;;;;;1.00;1.00;;;11.00;77.10;;;;;;4935825;29;20054;-83
2023/03/04 12:56:37;;;;;;;1.77;1.40;;;11.00;77.00;;;;;;4921182;29;20028;-83
2023/03/04 12:59:04;;;;;;;1.20;1.10;;;11.00;77.20;;;;;;4904421;29;20067;-81
2023/03/04 13:01:45;;;;;;;0.95;0.93;;;11.00;77.10;;;;;;4920493;29;20031;-85
2023/03/04 13:04:28;;;;;;;1.20;1.00;;;11.10;77.20;;;;;;4935186;29;20114;-82
2023/03/04 13:07:27;;;;;;;1.25;1.00;;;11.10;77.20;;;;;;4919674;29;20116;-82
2023/03/04 13:10:23;;;;;;;1.67;1.10;;;11.10;77.20;;;;;;4919665;29;20044;-82
2023/03/04 13:12:54;;;;;;;1.40;1.20;;;11.00;77.20;;;;;;4891774;29;20076;-82
2023/03/04 13:15:20;;;;;;;0.90;0.90;;;11.10;77.20;;;;;;4903852;29;20419;-83
2023/03/04 13:17:53;;;;;;;1.20;1.00;;;11.10;77.20;;;;;;4935428;29;20055;-81
2023/03/04 13:20:37;;;;;;;1.15;0.90;;;11.10;77.20;;;;;;4919471;29;20039;-81
2023/03/04 13:23:08;;;;;;;1.30;1.02;;;11.10;77.20;;;;;;4903061;29;20038;-82
2023/03/04 13:25:54;;;;;;;1.60;1.05;;;11.10;77.20;;;;;;4934924;29;20502;-84
2023/03/04 13:28:21;;;;;;;1.40;1.17;;;11.10;77.20;;;;;;4920246;29;20056;-83
2023/03/04 13:30:54;;;;;;;1.27;1.10;;;11.10;77.10;;;;;;4934471;29;20087;-82
2023/03/04 13:33:20;;;;;;;1.98;1.23;;;11.10;77.20;;;;;;4935193;29;20051;-82
2023/03/04 13:35:48;;;;;;;1.08;1.00;;;11.10;77.20;;;;;;4919789;29;20028;-83
2023/03/04 13:38:46;;;;;;;1.85;1.02;;;11.10;77.30;;;;;;4920502;29;20028;-84
2023/03/04 13:41:21;;;;;;;2.70;1.30;;;11.20;77.30;;;;;;4920091;29;20062;-83
2023/03/04 13:43:59;;;;;;;1.63;1.00;;;11.20;77.20;;;;;;4918952;29;20486;-82
2023/03/04 13:46:26;;;;;;;1.52;1.10;;;11.20;77.20;;;;;;4886496;29;20044;-84
2023/03/04 13:48:51;;;;;;;1.27;1.10;;;11.20;77.20;;;;;;4919732;29;20099;-84
2023/03/04 13:51:44;;;;;;;2.92;1.20;;;11.20;77.20;;;;;;4919960;29;20040;-82
2023/03/04 13:54:31;;;;;;;1.40;1.20;;;11.20;77.30;;;;;;4901615;29;20067;-85
2023/03/04 13:57:00;;;;;;;2.10;1.10;;;11.20;77.20;;;;;;4918301;29;20042;-85
2023/03/04 13:59:25;;;;;;;1.67;0.98;;;11.20;77.20;;;;;;4934123;29;20036;-82
2023/03/04 14:01:59;;;;;;;1.30;1.10;;;11.20;77.20;;;;;;4934228;29;20043;-86
2023/03/04 14:04:30;;;;;;;2.03;1.20;;;11.30;77.20;;;;;;4902923;29;20465;-83
2023/03/04 14:06:58;;;;;;;1.40;1.10;;;11.30;77.20;;;;;;4934186;29;20059;-87
2023/03/04 14:09:28;;;;;;;2.15;1.23;;;11.30;77.20;;;;;;4902714;29;20461;-85
2023/03/04 14:11:56;;;;;;;2.10;1.00;;;11.30;77.10;;;;;;4918258;29;20461;-84
2023/03/04 14:14:25;;;;;;;3.00;1.20;;;11.30;77.00;;;;;;4902399;29;20107;-84